createdAt,value
2018-07-22T00:02:27.231Z,7.53
2018-07-22T00:05:00.595Z,8.38
2018-07-22T00:07:34.031Z,8.25
2018-07-22T00:10:27.282Z,8.15
2018-07-22T00:13:01.113Z,8.88
2018-07-22T00:15:34.559Z,8.60
2018-07-22T00:18:07.996Z,8.58
2018-07-22T00:20:41.356Z,8.30
2018-07-22T00:23:14.773Z,7.65
2018-07-22T00:25:48.152Z,7.78
2018-07-22T00:28:21.551Z,8.38
2018-07-22T00:30:54.992Z,8.93
2018-07-22T00:33:28.434Z,9.15
2018-07-22T00:36:01.832Z,8.45
2018-07-22T00:38:35.251Z,8.43
2018-07-22T00:41:08.767Z,8.78
2018-07-22T00:43:42.179Z,9.15
2018-07-22T00:46:15.574Z,9.70
2018-07-22T00:48:48.984Z,8.35
2018-07-22T00:51:22.337Z,9.15
2018-07-22T00:53:55.710Z,9.25
2018-07-22T00:56:29.103Z,7.95
2018-07-22T00:59:02.500Z,8.18
2018-07-22T01:01:36.008Z,9.33
2018-07-22T01:04:09.428Z,8.38
2018-07-22T01:06:42.795Z,8.18
2018-07-22T01:09:16.185Z,8.48
2018-07-22T01:11:49.573Z,8.58
2018-07-22T01:14:23.054Z,8.43
2018-07-22T01:16:56.459Z,8.43
2018-07-22T01:19:29.861Z,8.30
2018-07-22T01:22:03.245Z,9.33
2018-07-22T01:24:36.708Z,7.78
2018-07-22T01:27:10.138Z,8.53
2018-07-22T01:29:43.513Z,8.20
2018-07-22T01:32:16.957Z,9.98
2018-07-22T01:34:50.351Z,8.45
2018-07-22T01:37:23.726Z,8.80
2018-07-22T01:39:57.118Z,9.35
2018-07-22T01:42:33.311Z,8.28
2018-07-22T01:45:06.764Z,9.08
2018-07-22T01:47:40.383Z,8.98
2018-07-22T01:50:13.783Z,9.45
2018-07-22T01:52:47.163Z,8.98
2018-07-22T01:55:20.568Z,8.98
2018-07-22T01:57:54.204Z,9.48
2018-07-22T02:00:27.624Z,9.18
2018-07-22T02:03:01.004Z,8.85
2018-07-22T02:05:34.399Z,8.43
2018-07-22T02:08:07.775Z,9.23
2018-07-22T02:10:41.186Z,9.18
2018-07-22T02:13:14.565Z,9.03
2018-07-22T02:15:48.081Z,9.65
2018-07-22T02:18:21.465Z,8.68
2018-07-22T02:20:54.878Z,8.80
2018-07-22T02:23:28.257Z,8.90
2018-07-22T02:26:01.672Z,9.35
2018-07-22T02:28:35.058Z,9.23
2018-07-22T02:31:09.095Z,8.85
2018-07-22T02:33:42.466Z,9.53
2018-07-22T02:36:15.827Z,8.88
2018-07-22T02:38:49.196Z,8.63
2018-07-22T02:41:22.599Z,9.43
2018-07-22T02:43:56.032Z,8.15
2018-07-22T02:46:29.426Z,9.80
2018-07-22T02:49:02.796Z,8.60
2018-07-22T02:51:36.304Z,9.00
2018-07-22T02:54:09.683Z,9.08
2018-07-22T02:56:43.085Z,8.53
2018-07-22T02:59:16.443Z,8.38
2018-07-22T03:01:49.837Z,8.83
2018-07-22T03:04:23.248Z,9.30
2018-07-22T03:06:56.607Z,9.90
2018-07-22T03:09:30.012Z,9.80
2018-07-22T03:12:03.424Z,8.70
2018-07-22T03:14:36.839Z,8.73
2018-07-22T03:17:12.890Z,9.85
2018-07-22T03:19:46.280Z,9.28
2018-07-22T03:22:19.659Z,9.43
2018-07-22T03:24:53.043Z,10.25
2018-07-22T03:27:26.395Z,8.90
2018-07-22T03:29:59.822Z,9.20
2018-07-22T03:32:33.193Z,9.93
2018-07-22T03:35:06.596Z,10.10
2018-07-22T03:37:39.957Z,9.78
2018-07-22T03:40:13.361Z,9.10
2018-07-22T03:42:46.730Z,10.15
2018-07-22T03:45:20.104Z,9.68
2018-07-22T03:47:53.484Z,9.88
2018-07-22T03:50:26.913Z,9.08
2018-07-22T03:53:00.291Z,9.20
2018-07-22T03:55:33.720Z,10.00
2018-07-22T03:58:07.191Z,10.05
2018-07-22T04:00:40.603Z,9.68
2018-07-22T04:03:13.965Z,10.65
2018-07-22T04:05:47.360Z,8.93
2018-07-22T04:08:20.731Z,9.10
2018-07-22T04:10:54.114Z,9.73
2018-07-22T04:13:27.518Z,8.68
2018-07-22T04:16:00.904Z,9.23
2018-07-22T04:18:38.594Z,10.70
2018-07-22T04:21:11.956Z,8.70
2018-07-22T04:23:45.306Z,9.45
2018-07-22T04:26:19.064Z,9.13
2018-07-22T04:28:52.539Z,9.03
2018-07-22T04:31:25.965Z,9.10
2018-07-22T04:33:59.335Z,8.43
2018-07-22T04:36:32.722Z,8.43
2018-07-22T04:39:08.648Z,8.20
2018-07-22T04:41:42.034Z,9.35
2018-07-22T04:44:15.402Z,8.85
2018-07-22T04:46:48.823Z,9.55
2018-07-22T04:49:22.207Z,9.45
2018-07-22T04:51:55.601Z,8.60
2018-07-22T04:54:28.983Z,9.38
2018-07-22T04:57:02.407Z,9.18
2018-07-22T04:59:35.751Z,8.80
2018-07-22T05:02:09.166Z,9.13
2018-07-22T05:04:42.534Z,8.78
2018-07-22T05:07:15.916Z,9.40
2018-07-22T05:09:49.270Z,9.28
2018-07-22T05:12:22.735Z,9.15
2018-07-22T05:14:56.092Z,8.83
2018-07-22T05:17:29.576Z,9.20
2018-07-22T05:20:02.943Z,9.00
2018-07-22T05:22:36.375Z,9.45
2018-07-22T05:25:09.768Z,10.08
2018-07-22T05:27:43.271Z,9.18
2018-07-22T05:30:16.643Z,9.63
2018-07-22T05:32:50.056Z,10.05
2018-07-22T05:35:23.424Z,10.43
2018-07-22T05:37:56.845Z,10.15
2018-07-22T05:40:30.351Z,10.38
2018-07-22T05:43:03.831Z,10.30
2018-07-22T05:45:37.216Z,10.50
2018-07-22T05:48:10.639Z,10.38
2018-07-22T05:50:44.067Z,10.65
2018-07-22T05:53:17.467Z,10.85
2018-07-22T05:55:50.832Z,11.30
2018-07-22T05:58:24.215Z,10.05
2018-07-22T06:00:57.618Z,9.68
2018-07-22T06:03:31.203Z,10.88
2018-07-22T06:06:04.638Z,10.28
2018-07-22T06:08:38.208Z,10.48
2018-07-22T06:11:11.789Z,10.78
2018-07-22T06:13:45.163Z,10.58
2018-07-22T06:16:18.788Z,10.03
2018-07-22T06:18:52.352Z,9.80
2018-07-22T06:21:25.836Z,9.30
2018-07-22T06:23:59.601Z,10.68
2018-07-22T06:26:33.018Z,11.43
2018-07-22T06:29:06.524Z,10.90
2018-07-22T06:31:40.019Z,11.00
2018-07-22T06:34:13.373Z,10.95
2018-07-22T06:36:46.792Z,11.10
2018-07-22T06:39:20.177Z,10.38
2018-07-22T06:41:53.654Z,10.38
2018-07-22T06:44:27.031Z,10.75
2018-07-22T06:47:00.470Z,12.60
2018-07-22T06:49:33.859Z,10.43
2018-07-22T06:52:07.279Z,10.45
2018-07-22T06:54:40.652Z,11.05
2018-07-22T06:57:14.120Z,10.93
2018-07-22T06:59:47.489Z,11.12
2018-07-22T07:02:21.234Z,11.78
2018-07-22T07:04:54.951Z,11.00
2018-07-22T07:07:28.341Z,9.98
2018-07-22T07:10:01.796Z,11.40
2018-07-22T07:12:35.237Z,10.72
2018-07-22T07:15:08.629Z,10.80
2018-07-22T07:17:42.084Z,10.13
2018-07-22T07:20:15.467Z,10.40
2018-07-22T07:22:48.887Z,10.80
2018-07-22T07:25:22.305Z,10.13
2018-07-22T07:27:55.821Z,10.35
2018-07-22T07:30:29.296Z,9.60
2018-07-22T07:33:02.683Z,9.60
2018-07-22T07:35:36.425Z,8.60
2018-07-22T07:38:09.827Z,9.55
2018-07-22T07:40:43.206Z,9.20
2018-07-22T07:43:16.701Z,9.43
2018-07-22T07:45:50.127Z,8.30
2018-07-22T07:48:23.506Z,7.80
2018-07-22T07:50:56.919Z,8.80
2018-07-22T07:53:30.357Z,8.75
2018-07-22T07:56:03.722Z,8.93
2018-07-22T07:58:37.119Z,7.97
2018-07-22T08:01:10.500Z,9.73
2018-07-22T08:03:44.117Z,7.90
2018-07-22T08:06:17.506Z,8.03
2018-07-22T08:08:51.028Z,8.23
2018-07-22T08:11:24.527Z,8.30
2018-07-22T08:13:58.006Z,8.75
2018-07-22T08:16:31.394Z,8.23
2018-07-22T08:19:04.871Z,7.35
2018-07-22T08:21:38.331Z,9.05
2018-07-22T08:24:11.723Z,8.13
2018-07-22T08:26:45.100Z,8.98
2018-07-22T08:29:21.851Z,8.75
2018-07-22T08:31:55.352Z,9.05
2018-07-22T08:34:28.834Z,9.00
2018-07-22T08:37:02.556Z,9.10
2018-07-22T08:39:35.988Z,10.23
2018-07-22T08:42:09.348Z,8.55
2018-07-22T08:44:42.755Z,8.45
2018-07-22T08:47:16.136Z,9.43
2018-07-22T08:49:49.537Z,8.70
2018-07-22T08:52:22.959Z,9.05
2018-07-22T08:54:56.335Z,8.58
2018-07-22T08:57:29.727Z,8.43
2018-07-22T09:00:03.190Z,9.58
2018-07-22T09:02:36.584Z,9.35
2018-07-22T09:05:10.083Z,8.58
2018-07-22T09:07:43.459Z,8.45
2018-07-22T09:10:16.953Z,9.03
2018-07-22T09:12:50.326Z,8.13
2018-07-22T09:15:23.726Z,8.88
2018-07-22T09:17:57.131Z,8.33
2018-07-22T09:20:30.522Z,8.00
2018-07-22T09:23:03.902Z,8.28
2018-07-22T09:25:37.276Z,8.95
2018-07-22T09:28:10.628Z,7.50
2018-07-22T09:30:44.078Z,8.08
2018-07-22T09:33:17.426Z,8.25
2018-07-22T09:35:50.808Z,8.18
2018-07-22T09:38:24.331Z,7.72
2018-07-22T09:40:57.763Z,7.20
2018-07-22T09:43:31.180Z,7.35
2018-07-22T09:46:04.655Z,7.20
2018-07-22T09:48:38.058Z,7.70
2018-07-22T09:51:11.425Z,6.92
2018-07-22T09:53:44.835Z,6.85
2018-07-22T09:56:18.237Z,7.80
2018-07-22T09:58:51.620Z,7.60
2018-07-22T10:01:25.000Z,7.37
2018-07-22T10:03:58.386Z,8.00
2018-07-22T10:06:31.773Z,7.97
2018-07-22T10:09:08.055Z,7.20
2018-07-22T10:11:41.412Z,7.78
2018-07-22T10:14:14.812Z,7.87
2018-07-22T10:16:48.261Z,7.95
2018-07-22T10:19:21.688Z,7.22
2018-07-22T10:21:55.052Z,7.83
2018-07-22T10:24:28.435Z,8.05
2018-07-22T10:27:02.623Z,7.53
2018-07-22T10:29:36.006Z,7.92
2018-07-22T10:32:09.380Z,7.87
2018-07-22T10:34:42.894Z,8.30
2018-07-22T10:37:16.244Z,8.08
2018-07-22T10:39:49.643Z,7.58
2018-07-22T10:42:23.009Z,8.05
2018-07-22T10:44:56.411Z,7.58
2018-07-22T10:47:29.831Z,7.60
2018-07-22T10:50:03.374Z,8.70
2018-07-22T10:52:36.790Z,7.45
2018-07-22T10:55:10.223Z,8.40
2018-07-22T10:57:43.623Z,8.13
2018-07-22T11:00:17.022Z,8.00
2018-07-22T11:02:50.389Z,7.80
2018-07-22T11:05:23.789Z,7.62
2018-07-22T11:07:57.245Z,7.90
2018-07-22T11:10:30.663Z,6.97
2018-07-22T11:13:04.047Z,7.65
2018-07-22T11:15:37.461Z,7.60
2018-07-22T11:18:10.852Z,7.97
2018-07-22T11:20:44.244Z,6.28
2018-07-22T11:23:17.620Z,7.17
2018-07-22T11:25:51.099Z,7.17
2018-07-22T11:28:24.466Z,6.72
2018-07-22T11:30:57.867Z,7.37
2018-07-22T11:33:31.233Z,6.53
2018-07-22T11:36:04.661Z,6.15
2018-07-22T11:38:38.024Z,6.53
2018-07-22T11:41:11.425Z,7.50
2018-07-22T11:43:44.811Z,7.28
2018-07-22T11:46:18.200Z,7.12
2018-07-22T11:48:51.579Z,6.97
2018-07-22T11:51:24.980Z,7.12
2018-07-22T11:53:58.351Z,7.30
2018-07-22T11:56:31.751Z,6.95
2018-07-22T11:59:05.235Z,7.10
2018-07-22T12:01:38.656Z,6.15
2018-07-22T12:04:12.070Z,7.22
2018-07-22T12:06:45.511Z,6.25
2018-07-22T12:09:18.908Z,7.17
2018-07-22T12:11:52.295Z,7.28
2018-07-22T12:14:25.683Z,6.87
2018-07-22T12:16:59.095Z,7.05
2018-07-22T12:19:32.494Z,7.45
2018-07-22T12:22:05.940Z,6.83
2018-07-22T12:24:39.315Z,7.22
2018-07-22T12:27:12.735Z,7.37
2018-07-22T12:29:46.120Z,7.83
2018-07-22T12:32:19.483Z,7.35
2018-07-22T12:34:52.849Z,7.47
2018-07-22T12:37:26.235Z,7.20
2018-07-22T12:39:59.629Z,6.90
2018-07-22T12:42:33.028Z,6.87
2018-07-22T12:45:06.825Z,7.00
2018-07-22T12:47:40.259Z,7.67
2018-07-22T12:50:13.610Z,6.65
2018-07-22T12:52:46.982Z,7.17
2018-07-22T12:55:20.355Z,6.95
2018-07-22T12:57:53.739Z,6.78
2018-07-22T13:00:27.164Z,5.90
2018-07-22T13:03:00.561Z,6.33
2018-07-22T13:05:34.143Z,6.20
2018-07-22T13:08:07.709Z,6.53
2018-07-22T13:10:41.091Z,6.60
2018-07-22T13:13:14.544Z,6.47
2018-07-22T13:15:47.886Z,5.72
2018-07-22T13:18:21.416Z,5.45
2018-07-22T13:20:54.820Z,5.45
2018-07-22T13:23:28.240Z,5.72
2018-07-22T13:26:01.668Z,6.17
2018-07-22T13:28:35.103Z,5.65
2018-07-22T13:31:08.479Z,5.28
2018-07-22T13:33:41.906Z,5.90
2018-07-22T13:36:15.635Z,6.28
2018-07-22T13:38:49.038Z,5.95
2018-07-22T13:41:22.475Z,5.62
2018-07-22T13:43:56.105Z,5.75
2018-07-22T13:46:29.531Z,5.28
2018-07-22T13:49:02.911Z,5.40
2018-07-22T13:51:37.003Z,5.40
2018-07-22T13:54:10.415Z,6.15
2018-07-22T13:56:43.832Z,5.30
2018-07-22T13:59:17.229Z,5.37
2018-07-22T14:01:50.671Z,5.15
2018-07-22T14:04:24.049Z,5.08
2018-07-22T14:06:57.460Z,5.22
2018-07-22T14:09:30.925Z,5.17
2018-07-22T14:12:04.576Z,5.33
2018-07-22T14:14:37.955Z,4.70
2018-07-22T14:17:11.362Z,5.10
2018-07-22T14:19:44.798Z,4.85
2018-07-22T14:22:18.223Z,5.50
2018-07-22T14:24:51.579Z,4.33
2018-07-22T14:27:25.176Z,5.45
2018-07-22T14:29:58.661Z,4.70
2018-07-22T14:32:32.078Z,5.50
2018-07-22T14:35:05.516Z,4.65
2018-07-22T14:37:38.894Z,4.70
2018-07-22T14:40:12.319Z,4.78
2018-07-22T14:42:47.554Z,5.50
2018-07-22T14:45:20.949Z,5.25
2018-07-22T14:47:54.604Z,4.83
2018-07-22T14:50:28.003Z,4.92
2018-07-22T14:53:01.404Z,4.58
2018-07-22T14:55:35.306Z,5.15
2018-07-22T14:58:08.745Z,4.83
2018-07-22T15:00:42.172Z,4.75
2018-07-22T15:03:15.581Z,4.58
2018-07-22T15:05:48.981Z,4.50
2018-07-22T15:08:22.355Z,4.70
2018-07-22T15:10:55.726Z,4.53
2018-07-22T15:13:29.143Z,4.50
2018-07-22T15:16:02.540Z,4.80
2018-07-22T15:18:36.149Z,4.53
2018-07-22T15:21:09.569Z,5.08
2018-07-22T15:23:42.971Z,4.90
2018-07-22T15:26:16.394Z,4.72
2018-07-22T15:28:49.788Z,4.70
2018-07-22T15:31:23.151Z,4.22
2018-07-22T15:33:56.529Z,4.65
2018-07-22T15:36:29.931Z,4.55
2018-07-22T15:39:03.411Z,4.35
2018-07-22T15:41:36.846Z,4.70
2018-07-22T15:44:10.343Z,4.55
2018-07-22T15:46:43.711Z,4.08
2018-07-22T15:49:17.110Z,4.25
2018-07-22T15:51:50.478Z,4.72
2018-07-22T15:54:23.866Z,5.00
2018-07-22T15:56:57.222Z,4.47
2018-07-22T15:59:30.614Z,4.20
2018-07-22T16:02:04.055Z,4.33
2018-07-22T16:04:37.436Z,4.67
2018-07-22T16:07:10.835Z,4.40
2018-07-22T16:09:44.254Z,3.98
2018-07-22T16:12:17.620Z,4.30
2018-07-22T16:14:51.066Z,3.87
2018-07-22T16:17:24.476Z,4.05
2018-07-22T16:19:57.907Z,3.92
2018-07-22T16:22:31.263Z,4.15
2018-07-22T16:25:04.707Z,4.15
2018-07-22T16:27:38.052Z,4.45
2018-07-22T16:30:11.467Z,4.85
2018-07-22T16:32:44.844Z,4.17
2018-07-22T16:35:18.243Z,4.33
2018-07-22T16:37:51.720Z,4.20
2018-07-22T16:40:25.104Z,3.98
2018-07-22T16:42:58.464Z,3.83
2018-07-22T16:45:31.859Z,3.33
2018-07-22T16:48:05.311Z,3.45
2018-07-22T16:50:38.706Z,3.62
2018-07-22T16:53:12.149Z,3.37
2018-07-22T16:55:45.532Z,3.37
2018-07-22T16:58:19.088Z,3.45
2018-07-22T17:00:52.465Z,3.27
2018-07-22T17:03:25.947Z,3.27
2018-07-22T17:05:59.399Z,3.27
2018-07-22T17:08:32.801Z,3.22
2018-07-22T17:11:06.160Z,3.40
2018-07-22T17:13:39.566Z,3.12
2018-07-22T17:16:12.939Z,3.08
2018-07-22T17:18:46.415Z,2.80
2018-07-22T17:21:19.826Z,3.00
2018-07-22T17:23:53.203Z,2.70
2018-07-22T17:26:26.580Z,3.12
2018-07-22T17:29:00.038Z,3.00
2018-07-22T17:31:33.458Z,2.95
2018-07-22T17:34:06.847Z,2.65
2018-07-22T17:36:40.198Z,2.92
2018-07-22T17:39:13.788Z,2.58
2018-07-22T17:41:47.163Z,2.83
2018-07-22T17:44:20.560Z,2.70
2018-07-22T17:46:53.958Z,2.75
2018-07-22T17:49:27.367Z,2.70
2018-07-22T17:52:00.762Z,2.70
2018-07-22T17:54:34.157Z,2.72
2018-07-22T17:57:07.927Z,2.55
2018-07-22T17:59:42.635Z,2.58
2018-07-22T18:02:16.139Z,2.65
2018-07-22T18:04:49.713Z,2.40
2018-07-22T18:07:23.216Z,2.75
2018-07-22T18:09:56.811Z,2.40
2018-07-22T18:12:30.411Z,2.30
2018-07-22T18:15:04.024Z,2.50
2018-07-22T18:17:37.636Z,2.40
2018-07-22T18:20:11.111Z,2.20
2018-07-22T18:22:44.641Z,2.70
2018-07-22T18:25:18.241Z,2.62
2018-07-22T18:27:51.819Z,2.50
2018-07-22T18:30:25.411Z,2.45
2018-07-22T18:32:59.097Z,2.42
2018-07-22T18:35:32.576Z,2.30
2018-07-22T18:38:06.800Z,2.17
2018-07-22T18:40:41.040Z,2.10
2018-07-22T18:43:14.873Z,2.40
2018-07-22T18:45:49.215Z,2.25
2018-07-22T18:48:23.043Z,2.30
2018-07-22T18:50:56.675Z,2.22
2018-07-22T18:53:30.254Z,2.58
2018-07-22T18:56:03.830Z,2.33
2018-07-22T18:58:37.433Z,2.58
2018-07-22T19:01:11.061Z,2.30
2018-07-22T19:03:44.747Z,2.75
2018-07-22T19:06:18.483Z,2.17
2018-07-22T19:08:52.189Z,2.52
2018-07-22T19:11:26.546Z,2.15
2018-07-22T19:14:00.189Z,2.00
2018-07-22T19:16:33.825Z,2.50
2018-07-22T19:19:07.549Z,2.27
2018-07-22T19:21:41.288Z,2.05
2018-07-22T19:24:14.842Z,2.12
2018-07-22T19:26:48.775Z,1.90
2018-07-22T19:29:23.081Z,2.10
2018-07-22T19:31:56.710Z,2.17
2018-07-22T19:34:30.200Z,2.20
2018-07-22T19:37:03.940Z,2.08
2018-07-22T19:39:37.342Z,2.15
2018-07-22T19:42:10.912Z,2.12
2018-07-22T19:44:44.634Z,2.35
2018-07-22T19:47:18.260Z,2.00
2018-07-22T19:49:51.860Z,2.08
2018-07-22T19:52:25.540Z,2.20
2018-07-22T19:55:00.069Z,2.25
2018-07-22T19:57:34.404Z,2.33
2018-07-22T20:00:08.349Z,2.05
2018-07-22T20:02:42.855Z,2.35
2018-07-22T20:05:17.225Z,2.15
2018-07-22T20:07:51.679Z,1.87
2018-07-22T20:10:25.885Z,2.40
2018-07-22T20:13:00.375Z,2.30
2018-07-22T20:15:34.974Z,2.17
2018-07-22T20:18:09.547Z,2.17
2018-07-22T20:20:43.615Z,2.70
2018-07-22T20:23:17.708Z,1.90
2018-07-22T20:25:51.294Z,2.20
2018-07-22T20:28:24.962Z,2.50
2018-07-22T20:30:58.619Z,2.30
2018-07-22T20:33:32.289Z,2.20
2018-07-22T20:36:06.114Z,2.65
2018-07-22T20:38:39.742Z,2.50
2018-07-22T20:41:13.388Z,1.95
2018-07-22T20:43:46.964Z,2.10
2018-07-22T20:46:20.505Z,2.25
2018-07-22T20:48:52.942Z,2.37
2018-07-22T20:51:26.569Z,2.35
2018-07-22T20:54:01.150Z,2.20
2018-07-22T20:56:34.912Z,2.60
2018-07-22T20:59:08.538Z,2.30
2018-07-22T21:01:43.179Z,2.30
2018-07-22T21:04:16.897Z,2.20
2018-07-22T21:06:50.865Z,2.47
2018-07-22T21:09:24.405Z,2.10
2018-07-22T21:13:08.196Z,2.08
2018-07-22T21:15:41.782Z,2.50
2018-07-22T21:18:15.388Z,2.25
2018-07-22T21:20:50.164Z,2.50
2018-07-22T21:23:23.956Z,2.25
2018-07-22T21:25:58.523Z,2.30
2018-07-22T21:28:32.965Z,2.72
2018-07-22T21:31:06.624Z,2.30
2018-07-22T21:33:40.218Z,2.30
2018-07-22T21:36:13.861Z,2.20
2018-07-22T21:38:47.528Z,2.40
2018-07-22T21:41:21.094Z,2.40
2018-07-22T21:43:54.726Z,2.58
2018-07-22T21:46:28.252Z,2.35
2018-07-22T21:49:01.947Z,2.60
2018-07-22T21:51:35.525Z,2.37
2018-07-22T21:54:09.095Z,2.30
2018-07-22T21:56:42.576Z,2.45
2018-07-22T21:59:16.113Z,2.92
2018-07-22T22:01:49.781Z,2.70
2018-07-22T22:04:23.551Z,2.70
2018-07-22T22:06:57.180Z,2.40
2018-07-22T22:09:30.730Z,2.65
2018-07-22T22:12:04.969Z,3.02
2018-07-22T22:14:38.515Z,2.47
2018-07-22T22:17:12.156Z,3.00
2018-07-22T22:19:45.826Z,2.70
2018-07-22T22:22:19.439Z,2.50
2018-07-22T22:24:53.025Z,2.80
2018-07-22T22:27:26.566Z,2.70
2018-07-22T22:30:00.151Z,3.25
2018-07-22T22:32:33.711Z,2.37
2018-07-22T22:35:07.673Z,2.70
2018-07-22T22:37:42.156Z,3.10
2018-07-22T22:40:16.323Z,2.42
2018-07-22T22:42:49.917Z,2.50
2018-07-22T22:45:23.467Z,2.65
2018-07-22T22:47:57.085Z,3.17
2018-07-22T22:50:30.689Z,2.85
2018-07-22T22:53:04.211Z,3.22
2018-07-22T22:55:37.678Z,2.90
2018-07-22T22:58:22.275Z,2.90
2018-07-22T23:00:56.011Z,2.70
2018-07-22T23:03:29.622Z,2.90
2018-07-22T23:06:03.273Z,2.80
2018-07-22T23:08:36.786Z,2.95
2018-07-22T23:11:10.273Z,2.83
2018-07-22T23:13:43.891Z,3.27
2018-07-22T23:16:17.764Z,3.12
2018-07-22T23:18:51.390Z,3.00
2018-07-22T23:21:24.823Z,2.90
2018-07-22T23:23:58.507Z,3.17
2018-07-22T23:26:32.673Z,2.90
2018-07-22T23:29:06.407Z,3.15
2018-07-22T23:31:39.953Z,3.02
2018-07-22T23:34:13.455Z,3.10
2018-07-22T23:36:47.080Z,3.30
2018-07-22T23:39:20.708Z,3.10
2018-07-22T23:41:54.320Z,3.12
2018-07-22T23:44:27.879Z,2.77
2018-07-22T23:47:01.479Z,3.00
2018-07-22T23:49:35.047Z,2.95
2018-07-22T23:52:08.594Z,2.92
2018-07-22T23:54:42.217Z,2.92
2018-07-22T23:57:15.735Z,2.72
2018-07-22T23:59:49.314Z,2.90
